Time;durP1;ratioP1;P1;durP2;ratioP2;P2;SDS_P1;SDS_P2;PMS_P1;PMS_P2;Temp;Humidity;BMP_temperature;BMP_pressure;BME280_temperature;BME280_humidity;BME280_pressure;Samples;Min_cycle;Max_cycle;Signal;HPM_P1;HPM_P2
2022/06/23 00:00:36;;;;;;;8.40;5.70;;;15.10;99.90;;;;;;5079728;28;20420;-81
2022/06/23 00:03:04;;;;;;;7.72;5.38;;;15.20;99.90;;;;;;5091867;28;20413;-81
2022/06/23 00:05:37;;;;;;;7.63;6.20;;;15.20;99.90;;;;;;5091668;28;20436;-81
2022/06/23 00:08:07;;;;;;;7.60;5.80;;;15.20;99.90;;;;;;5078322;28;20434;-81
2022/06/23 00:10:38;;;;;;;9.23;5.72;;;14.70;99.90;;;;;;5100821;28;20422;-81
2022/06/23 00:13:16;;;;;;;7.88;6.07;;;14.90;99.90;;;;;;5084077;28;20417;-81
2022/06/23 00:15:44;;;;;;;10.32;6.38;;;14.60;99.90;;;;;;5086719;28;20431;-81
2022/06/23 00:18:25;;;;;;;7.90;6.47;;;14.70;99.90;;;;;;5082030;28;20431;-80
2022/06/23 00:20:54;;;;;;;7.85;6.32;;;;;;;;;;5098106;28;20862;-81
2022/06/23 00:23:28;;;;;;;10.27;6.87;;;14.70;99.90;;;;;;5087790;28;20418;-80
2022/06/23 00:26:17;;;;;;;8.02;6.22;;;14.70;99.90;;;;;;5079532;28;20417;-80
2022/06/23 00:28:56;;;;;;;8.47;6.50;;;14.40;99.90;;;;;;5086378;28;20502;-80
2022/06/23 00:31:25;;;;;;;10.23;6.80;;;;;;;;;;5063781;28;20415;-81
2022/06/23 00:33:51;;;;;;;7.90;6.90;;;14.60;99.90;;;;;;5070469;28;20394;-81
2022/06/23 00:36:36;;;;;;;9.27;7.22;;;14.60;99.90;;;;;;5077190;28;20422;-81
2022/06/23 00:39:18;;;;;;;8.80;7.10;;;14.70;99.90;;;;;;5095604;28;20499;-81
2022/06/23 00:41:44;;;;;;;8.88;7.53;;;14.10;99.90;;;;;;5069247;28;20786;-81
2022/06/23 00:44:43;;;;;;;10.33;7.57;;;14.00;99.90;;;;;;5053163;28;20488;-80
2022/06/23 00:47:13;;;;;;;13.48;7.75;;;;;;;;;;5073598;28;20814;-80
2022/06/23 00:49:49;;;;;;;9.30;8.00;;;;;;;;;;5094219;28;20419;-80
2022/06/23 00:52:40;;;;;;;10.23;7.80;;;14.10;99.90;;;;;;5086913;28;20891;-81
2022/06/23 00:55:41;;;;;;;10.48;7.75;;;14.40;99.90;;;;;;5071386;28;20422;-81
2022/06/23 00:58:22;;;;;;;10.13;8.17;;;;;;;;;;5004276;28;20480;-81
2022/06/23 01:00:52;;;;;;;9.30;7.43;;;14.00;99.90;;;;;;5072461;28;20580;-81
2022/06/23 01:03:25;;;;;;;11.63;7.77;;;14.00;99.90;;;;;;5064972;28;20901;-81
2022/06/23 01:06:17;;;;;;;10.73;7.50;;;14.20;99.90;;;;;;5092164;28;20400;-81
2022/06/23 01:08:51;;;;;;;9.32;7.50;;;14.10;99.90;;;;;;5096182;28;20427;-81
2022/06/23 01:11:44;;;;;;;9.68;7.90;;;14.00;99.90;;;;;;5080017;28;20418;-81
2022/06/23 01:14:11;;;;;;;11.15;7.75;;;;;;;;;;5091827;28;20935;-81
2022/06/23 01:16:46;;;;;;;11.27;7.63;;;14.10;99.90;;;;;;5079549;28;20503;-80
2022/06/23 01:19:31;;;;;;;10.57;7.97;;;;;;;;;;5073352;28;20476;-80
2022/06/23 01:21:59;;;;;;;11.25;7.88;;;;;;;;;;5075187;28;20420;-80
2022/06/23 01:24:41;;;;;;;10.65;8.57;;;13.90;99.90;;;;;;5076779;28;20504;-80
2022/06/23 01:27:24;;;;;;;10.80;7.82;;;;;;;;;;5085345;28;20499;-80
2022/06/23 01:29:57;;;;;;;10.97;8.73;;;14.10;99.90;;;;;;5068605;28;20898;-80
2022/06/23 01:32:45;;;;;;;12.45;8.95;;;13.80;99.90;;;;;;5123536;27;20459;-80
2022/06/23 01:35:27;;;;;;;12.13;8.75;;;13.60;99.90;;;;;;5087579;28;20461;-80
2022/06/23 01:38:03;;;;;;;14.07;9.48;;;13.50;99.90;;;;;;5080614;28;20416;-80
2022/06/23 01:40:35;;;;;;;15.18;9.80;;;13.50;99.90;;;;;;5092912;28;20416;-81
2022/06/23 01:43:01;;;;;;;12.60;9.80;;;;;;;;;;5091557;28;20471;-80
2022/06/23 01:45:59;;;;;;;13.15;9.23;;;13.50;99.90;;;;;;5066350;28;20412;-80
2022/06/23 01:48:51;;;;;;;15.52;9.90;;;13.50;99.90;;;;;;5071895;28;20441;-80
2022/06/23 01:51:25;;;;;;;13.35;9.55;;;;;;;;;;5072453;28;20497;-80
2022/06/23 01:53:53;;;;;;;13.07;9.35;;;13.60;99.90;;;;;;5079007;28;20505;-80
2022/06/23 01:56:30;;;;;;;13.15;9.35;;;;;;;;;;5093982;28;20503;-80
2022/06/23 01:59:15;;;;;;;13.02;9.55;;;;;;;;;;5057486;28;20426;-80
2022/06/23 02:02:10;;;;;;;15.07;10.38;;;13.60;99.90;;;;;;5081416;28;20429;-80
2022/06/23 02:04:41;;;;;;;15.77;10.63;;;13.70;99.90;;;;;;5074230;28;20552;-80
2022/06/23 02:07:34;;;;;;;15.15;10.25;;;13.60;99.90;;;;;;5068501;28;20420;-80
2022/06/23 02:10:06;;;;;;;15.85;10.27;;;;;;;;;;5083982;28;20473;-81
2022/06/23 02:12:45;;;;;;;14.75;10.20;;;;;;;;;;5098939;28;20434;-80
2022/06/23 02:15:26;;;;;;;14.38;10.20;;;;;;;;;;5063605;28;20430;-80
2022/06/23 02:18:19;;;;;;;14.30;10.15;;;;;;;;;;5088943;28;20917;-80
2022/06/23 02:20:57;;;;;;;13.02;9.82;;;;;;;;;;5059401;28;20428;-80
2022/06/23 02:23:32;;;;;;;14.68;10.15;;;;;;;;;;5081324;28;20414;-80
2022/06/23 02:26:06;;;;;;;16.13;11.00;;;13.70;99.90;;;;;;5082383;28;20779;-81
2022/06/23 02:28:45;;;;;;;16.40;10.95;;;;;;;;;;5095312;28;20411;-81
2022/06/23 02:31:21;;;;;;;15.57;10.35;;;13.60;99.90;;;;;;5084431;28;20450;-80
2022/06/23 02:34:05;;;;;;;14.90;10.70;;;13.40;99.90;;;;;;5093813;28;20425;-81
2022/06/23 02:36:36;;;;;;;15.77;10.80;;;13.10;99.90;;;;;;5092976;28;20511;-81
2022/06/23 02:39:06;;;;;;;17.90;11.10;;;13.40;99.90;;;;;;5098940;28;20535;-81
2022/06/23 02:41:35;;;;;;;16.70;10.90;;;;;;;;;;5080401;28;20420;-80
2022/06/23 02:44:20;;;;;;;16.45;10.52;;;13.50;99.90;;;;;;5097409;28;20402;-81
2022/06/23 02:46:49;;;;;;;14.48;10.30;;;;;;;;;;5073713;28;20986;-80
2022/06/23 02:49:30;;;;;;;14.88;10.82;;;;;;;;;;5079496;28;20980;-80
2022/06/23 02:52:22;;;;;;;17.30;11.15;;;13.50;99.90;;;;;;5096120;28;20421;-81
2022/06/23 02:55:14;;;;;;;14.77;10.40;;;13.40;99.90;;;;;;5069785;28;20414;-80
2022/06/23 02:57:49;;;;;;;17.63;11.05;;;13.50;99.90;;;;;;5094793;28;20452;-81
2022/06/23 03:00:45;;;;;;;17.15;11.35;;;13.60;99.90;;;;;;5072894;28;20416;-81
2022/06/23 03:03:19;;;;;;;16.52;11.13;;;;;;;;;;5048708;28;20422;-80
2022/06/23 03:06:03;;;;;;;19.77;11.85;;;;;;;;;;5095609;28;20445;-81
2022/06/23 03:08:38;;;;;;;17.13;11.90;;;13.40;99.90;;;;;;5090695;28;20420;-80
2022/06/23 03:11:51;;;;;;;19.33;11.87;;;;;;;;;;5079123;28;20521;-81
2022/06/23 03:14:28;;;;;;;19.15;12.27;;;;;;;;;;5094728;28;20432;-80
2022/06/23 03:16:59;;;;;;;19.58;12.55;;;13.30;99.90;;;;;;5086056;28;20785;-80
2022/06/23 03:19:35;;;;;;;18.50;12.48;;;13.30;99.90;;;;;;5083806;28;20931;-81
2022/06/23 03:22:07;;;;;;;20.90;12.68;;;13.40;99.90;;;;;;5094270;28;20416;-80
2022/06/23 03:24:33;;;;;;;20.88;13.13;;;;;;;;;;5071761;28;20417;-80
2022/06/23 03:27:11;;;;;;;20.25;12.60;;;;;;;;;;5073504;28;20970;-81
2022/06/23 03:29:46;;;;;;;20.60;13.02;;;;;;;;;;5091361;28;20402;-81
2022/06/23 03:32:22;;;;;;;22.77;13.70;;;13.20;99.90;;;;;;5083249;28;20412;-80
2022/06/23 03:35:23;;;;;;;18.50;12.07;;;13.60;99.90;;;;;;5081304;28;20431;-80
2022/06/23 03:37:58;;;;;;;19.75;12.63;;;;;;;;;;5068511;28;20414;-80
2022/06/23 03:43:33;;;;;;;19.35;12.27;;;13.40;99.90;;;;;;5093102;28;20426;-80
2022/06/23 03:46:17;;;;;;;20.02;12.50;;;;;;;;;;5088674;28;20430;-80
2022/06/23 03:49:09;;;;;;;23.77;12.85;;;;;;;;;;5083498;28;20425;-81
2022/06/23 03:51:40;;;;;;;22.15;12.10;;;13.20;99.90;;;;;;5048773;28;20488;-81
2022/06/23 03:54:14;;;;;;;17.65;12.30;;;13.30;99.90;;;;;;5105831;28;20807;-81
2022/06/23 03:56:46;;;;;;;22.67;13.20;;;;;;;;;;5070989;28;20917;-82
2022/06/23 03:59:15;;;;;;;19.52;13.35;;;;;;;;;;5079419;28;20419;-82
2022/06/23 04:01:51;;;;;;;22.02;13.32;;;;;;;;;;5096888;28;20431;-81
2022/06/23 04:04:25;;;;;;;20.80;13.30;;;;;;;;;;5085576;28;20885;-81
2022/06/23 04:06:52;;;;;;;22.42;13.57;;;13.10;99.90;;;;;;5089781;28;20822;-81
2022/06/23 04:09:18;;;;;;;21.90;13.73;;;;;;;;;;5088813;28;20448;-81
2022/06/23 04:11:47;;;;;;;19.40;12.90;;;;;;;;;;5086868;28;20425;-80
2022/06/23 04:14:21;;;;;;;19.70;12.20;;;13.40;99.90;;;;;;5095321;28;20942;-81
2022/06/23 04:16:53;;;;;;;19.52;12.90;;;13.40;99.90;;;;;;5087189;28;20422;-81
2022/06/23 04:19:22;;;;;;;21.20;13.10;;;;;;;;;;5076719;28;20433;-80
2022/06/23 04:21:49;;;;;;;18.92;12.77;;;;;;;;;;5074594;28;20507;-80
2022/06/23 04:24:22;;;;;;;20.23;12.80;;;13.50;99.90;;;;;;5078200;28;20588;-80
2022/06/23 04:26:53;;;;;;;20.27;12.50;;;13.60;99.90;;;;;;5070708;28;21016;-81
2022/06/23 04:29:23;;;;;;;18.88;12.45;;;13.60;99.90;;;;;;5083825;28;20510;-80
2022/06/23 04:31:53;;;;;;;20.33;12.18;;;13.70;99.90;;;;;;5070737;28;20489;-81
2022/06/23 04:34:31;;;;;;;19.55;12.45;;;13.60;99.90;;;;;;5083270;28;20467;-80
2022/06/23 04:36:59;;;;;;;21.00;13.33;;;;;;;;;;5071195;28;20434;-81
2022/06/23 04:39:25;;;;;;;22.63;13.57;;;;;;;;;;5082949;28;20532;-81
2022/06/23 04:42:24;;;;;;;18.85;12.70;;;13.80;99.90;;;;;;5073187;28;20986;-80
2022/06/23 04:44:54;;;;;;;19.23;12.88;;;;;;;;;;5087458;28;20755;-81
2022/06/23 04:47:23;;;;;;;19.25;12.25;;;13.80;99.90;;;;;;5078680;28;20432;-81
2022/06/23 04:50:00;;;;;;;21.15;12.60;;;13.60;99.90;;;;;;5089203;28;20846;-81
2022/06/23 04:52:40;;;;;;;21.05;13.07;;;13.80;99.90;;;;;;5091774;28;20931;-81
2022/06/23 04:55:17;;;;;;;19.20;13.05;;;13.80;99.90;;;;;;5093141;28;20429;-81
2022/06/23 04:57:52;;;;;;;19.08;12.98;;;;;;;;;;5077257;28;20414;-80
2022/06/23 05:00:26;;;;;;;19.88;12.60;;;13.90;99.90;;;;;;5075771;28;20772;-80
2022/06/23 05:03:15;;;;;;;19.73;13.07;;;13.70;99.90;;;;;;5073933;28;20420;-80
2022/06/23 05:05:42;;;;;;;19.17;12.55;;;;;;;;;;5075172;28;20407;-80
2022/06/23 05:08:12;;;;;;;19.13;12.27;;;;;;;;;;5097244;28;20418;-80
2022/06/23 05:11:14;;;;;;;19.27;12.95;;;13.90;99.90;;;;;;5081530;28;20768;-80
2022/06/23 05:13:55;;;;;;;17.35;12.60;;;14.30;99.90;;;;;;5066733;28;20422;-79
2022/06/23 05:16:27;;;;;;;17.90;11.80;;;;;;;;;;5086210;28;20438;-79
2022/06/23 05:18:54;;;;;;;17.30;11.60;;;;;;;;;;5072599;28;20398;-79
2022/06/23 05:21:22;;;;;;;18.10;11.80;;;;;;;;;;5087276;28;20433;-79
2022/06/23 05:23:52;;;;;;;17.50;11.93;;;;;;;;;;5084869;28;20414;-78
2022/06/23 05:26:26;;;;;;;15.85;11.35;;;14.80;99.90;;;;;;5092268;28;20508;-78
2022/06/23 05:29:04;;;;;;;19.23;11.68;;;;;;;;;;5076237;28;20492;-79
2022/06/23 05:31:35;;;;;;;15.90;11.52;;;;;;;;;;5078449;28;20410;-79
2022/06/23 05:34:08;;;;;;;15.48;11.20;;;15.10;99.90;;;;;;5066017;28;20510;-81
2022/06/23 05:36:42;;;;;;;16.38;11.35;;;;;;;;;;5070803;28;20428;-80
2022/06/23 05:39:25;;;;;;;17.47;11.30;;;15.30;99.90;;;;;;5088048;28;20458;-80
2022/06/23 05:41:53;;;;;;;15.18;11.15;;;;;;;;;;5078712;28;20428;-79
2022/06/23 05:44:32;;;;;;;15.50;11.57;;;15.80;99.90;;;;;;5088292;28;20406;-80
2022/06/23 05:47:00;;;;;;;16.17;11.70;;;;;;;;;;5094281;28;20423;-79
2022/06/23 05:49:38;;;;;;;20.00;11.48;;;15.70;99.90;;;;;;5068075;28;20441;-79
2022/06/23 05:52:14;;;;;;;15.38;11.05;;;15.90;99.90;;;;;;5081561;28;20427;-79
2022/06/23 05:54:49;;;;;;;13.48;10.98;;;16.10;99.90;;;;;;5080690;28;20457;-79
2022/06/23 05:57:21;;;;;;;16.23;11.27;;;16.20;99.90;;;;;;5067723;28;20950;-79
2022/06/23 06:00:14;;;;;;;14.15;10.82;;;16.30;99.90;;;;;;5065353;28;20409;-79
2022/06/23 06:02:52;;;;;;;14.13;10.82;;;16.30;99.90;;;;;;5085117;28;20414;-79
2022/06/23 06:05:43;;;;;;;13.65;10.52;;;16.40;99.90;;;;;;5082546;28;20412;-79
2022/06/23 06:08:20;;;;;;;13.80;10.23;;;16.70;99.90;;;;;;5089904;28;20493;-79
2022/06/23 06:10:47;;;;;;;14.73;10.50;;;16.90;99.90;;;;;;5091994;28;20431;-78
2022/06/23 06:13:23;;;;;;;13.10;9.68;;;16.90;99.90;;;;;;5085599;28;20789;-78
2022/06/23 06:15:53;;;;;;;13.83;10.27;;;16.90;99.90;;;;;;5076650;28;20583;-79
2022/06/23 06:18:30;;;;;;;12.57;9.88;;;17.30;99.90;;;;;;5081347;28;20419;-72
2022/06/23 06:21:01;;;;;;;11.35;9.70;;;17.00;99.90;;;;;;5078225;28;20422;-72
2022/06/23 06:23:51;;;;;;;12.88;9.55;;;17.60;99.90;;;;;;5080211;28;20420;-74
2022/06/23 06:26:23;;;;;;;13.13;9.95;;;17.50;99.90;;;;;;5061999;28;20420;-74
2022/06/23 06:28:53;;;;;;;15.40;9.60;;;17.70;99.90;;;;;;5087631;28;20480;-73
2022/06/23 06:31:40;;;;;;;10.65;8.93;;;17.90;99.90;;;;;;5067315;28;20422;-73
2022/06/23 06:34:25;;;;;;;14.50;9.48;;;18.00;99.90;;;;;;5091818;28;20424;-73
2022/06/23 06:36:53;;;;;;;10.50;9.03;;;17.80;99.90;;;;;;5077009;28;20445;-73
2022/06/23 06:39:23;;;;;;;11.40;8.53;;;18.10;99.90;;;;;;5086597;28;20418;-80
2022/06/23 06:42:04;;;;;;;11.27;8.20;;;18.20;99.90;;;;;;5103406;27;20414;-79
2022/06/23 06:44:31;;;;;;;12.05;8.82;;;18.50;99.90;;;;;;5094231;28;20475;-79
2022/06/23 06:46:57;;;;;;;11.82;8.60;;;17.20;99.90;;;;;;5089543;28;20509;-79
2022/06/23 06:49:24;;;;;;;12.40;8.73;;;18.50;99.90;;;;;;5084166;28;20984;-79
2022/06/23 06:51:53;;;;;;;11.43;8.80;;;18.20;99.90;;;;;;5086262;28;20424;-70
2022/06/23 06:54:26;;;;;;;13.68;8.65;;;18.40;99.90;;;;;;5072712;28;20471;-70
2022/06/23 06:56:55;;;;;;;11.02;8.70;;;18.50;99.90;;;;;;5071470;28;20424;-70
2022/06/23 06:59:37;;;;;;;10.23;8.70;;;18.50;99.90;;;;;;5075933;28;20416;-70
2022/06/23 07:02:14;;;;;;;9.82;8.45;;;18.50;99.90;;;;;;5080841;28;20985;-71
2022/06/23 07:04:51;;;;;;;11.82;8.93;;;18.90;99.90;;;;;;5087737;28;20410;-72
2022/06/23 07:07:20;;;;;;;15.52;8.88;;;18.80;99.90;;;;;;5088399;28;20420;-72
2022/06/23 07:09:57;;;;;;;10.77;8.00;;;18.70;99.90;;;;;;5092635;28;20531;-72
2022/06/23 07:12:40;;;;;;;12.75;9.40;;;18.90;99.90;;;;;;5077314;28;20498;-72
2022/06/23 07:15:18;;;;;;;11.10;8.33;;;18.80;99.90;;;;;;5095600;28;20412;-73
2022/06/23 07:17:50;;;;;;;11.40;9.02;;;19.70;99.90;;;;;;5083876;28;20431;-72
2022/06/23 07:20:47;;;;;;;13.93;8.60;;;19.30;99.90;;;;;;5090556;28;20421;-73
2022/06/23 07:23:38;;;;;;;10.05;7.68;;;19.60;99.90;;;;;;5087421;28;20426;-72
2022/06/23 07:26:42;;;;;;;10.20;8.20;;;19.90;99.90;;;;;;5088339;28;20410;-72
2022/06/23 07:29:11;;;;;;;10.35;7.60;;;20.00;99.90;;;;;;5082285;28;20418;-72
2022/06/23 07:31:59;;;;;;;11.15;7.85;;;18.60;99.90;;;;;;5090807;28;20500;-72
2022/06/23 07:34:28;;;;;;;10.95;8.27;;;19.80;99.90;;;;;;5083469;28;20551;-72
2022/06/23 07:36:59;;;;;;;9.98;7.50;;;20.30;99.90;;;;;;5090939;28;20580;-72
2022/06/23 07:39:43;;;;;;;9.07;7.93;;;21.10;99.90;;;;;;5095135;28;20420;-72
2022/06/23 07:42:37;;;;;;;10.45;7.38;;;20.80;99.90;;;;;;5088541;28;20466;-72
2022/06/23 07:45:12;;;;;;;10.75;7.50;;;20.80;99.90;;;;;;5087586;28;20931;-72
2022/06/23 07:47:38;;;;;;;10.25;7.38;;;21.20;99.90;;;;;;5087718;28;20428;-72
2022/06/23 07:50:04;;;;;;;9.20;7.20;;;21.10;99.90;;;;;;5089768;28;20434;-71
2022/06/23 07:52:30;;;;;;;9.50;6.60;;;21.30;99.90;;;;;;5092832;28;20420;-72
2022/06/23 07:54:56;;;;;;;10.63;6.47;;;21.50;99.90;;;;;;5091255;28;20419;-72
2022/06/23 07:57:22;;;;;;;9.68;6.90;;;21.40;99.90;;;;;;5085090;28;20738;-71
2022/06/23 07:59:58;;;;;;;10.70;6.45;;;21.70;99.90;;;;;;5087739;28;20465;-72
2022/06/23 08:02:43;;;;;;;8.30;5.65;;;22.00;99.90;;;;;;5060804;28;20480;-72
2022/06/23 08:05:15;;;;;;;7.60;5.97;;;22.00;99.90;;;;;;5099756;28;20433;-72
2022/06/23 08:07:41;;;;;;;7.20;5.50;;;22.20;99.90;;;;;;5073865;28;20394;-72
2022/06/23 08:10:11;;;;;;;8.82;5.70;;;22.30;99.90;;;;;;5090915;28;20419;-72
2022/06/23 08:12:53;;;;;;;7.50;5.47;;;22.50;99.90;;;;;;5075171;28;20748;-71
2022/06/23 08:18:25;;;;;;;7.18;5.60;;;22.50;99.90;;;;;;5085180;28;20418;-72
2022/06/23 08:21:14;;;;;;;6.55;4.80;;;22.40;99.90;;;;;;5087912;28;20402;-72
2022/06/23 08:24:23;;;;;;;9.73;4.88;;;23.10;99.90;;;;;;5102255;28;20400;-71
2022/06/23 08:27:11;;;;;;;8.67;5.20;;;23.30;99.90;;;;;;5083881;28;20429;-72
2022/06/23 08:30:07;;;;;;;7.65;5.05;;;23.40;99.90;;;;;;5086606;28;20427;-72
2022/06/23 08:32:33;;;;;;;6.90;4.95;;;23.10;99.90;;;;;;5085990;28;20522;-71
2022/06/23 08:35:18;;;;;;;8.13;4.68;;;23.20;99.90;;;;;;5086275;28;20925;-72
2022/06/23 08:37:57;;;;;;;8.63;4.80;;;23.50;99.90;;;;;;5089469;28;20549;-72
2022/06/23 08:40:31;;;;;;;8.10;5.03;;;23.90;99.90;;;;;;5076402;28;20897;-72
2022/06/23 08:43:15;;;;;;;6.95;5.00;;;23.80;99.90;;;;;;5091537;28;20417;-72
2022/06/23 08:46:05;;;;;;;7.05;4.57;;;24.20;99.90;;;;;;5078249;28;20853;-71
2022/06/23 08:48:56;;;;;;;7.05;4.95;;;24.50;99.90;;;;;;5102745;28;20413;-72
2022/06/23 08:51:33;;;;;;;6.30;4.10;;;24.30;99.90;;;;;;5089334;28;20424;-72
2022/06/23 08:54:12;;;;;;;6.05;4.10;;;24.60;99.90;;;;;;5084502;28;20432;-72
2022/06/23 08:56:51;;;;;;;8.90;4.40;;;24.60;99.90;;;;;;5074801;28;20522;-72
2022/06/23 08:59:35;;;;;;;5.68;3.92;;;24.70;99.90;;;;;;5077126;28;20419;-71
2022/06/23 09:02:07;;;;;;;6.40;4.05;;;24.60;99.90;;;;;;5074588;28;20427;-72
2022/06/23 09:04:50;;;;;;;5.60;3.55;;;24.80;99.90;;;;;;5081835;28;20845;-72
2022/06/23 09:07:42;;;;;;;7.25;4.25;;;25.40;99.90;;;;;;5060540;28;20400;-72
2022/06/23 09:10:32;;;;;;;9.73;3.88;;;25.10;99.90;;;;;;5088799;28;20421;-72
2022/06/23 09:13:13;;;;;;;6.38;3.30;;;24.80;99.90;;;;;;5079427;28;20427;-72
2022/06/23 09:16:02;;;;;;;8.07;3.85;;;25.10;99.90;;;;;;5062905;28;20484;-72
2022/06/23 09:18:28;;;;;;;9.67;3.63;;;25.10;99.90;;;;;;5082910;28;20429;-72
2022/06/23 09:21:14;;;;;;;6.80;3.60;;;25.40;99.90;;;;;;5085890;28;20836;-71
2022/06/23 09:23:51;;;;;;;6.45;3.53;;;25.50;99.90;;;;;;5094724;28;20420;-71
2022/06/23 09:26:39;;;;;;;5.30;3.13;;;25.50;99.90;;;;;;5079583;28;20427;-72
2022/06/23 09:29:21;;;;;;;6.80;3.55;;;26.20;99.90;;;;;;5071150;28;20407;-71
2022/06/23 09:32:05;;;;;;;5.85;3.53;;;26.00;99.90;;;;;;5071344;28;20456;-71
2022/06/23 09:35:05;;;;;;;7.20;3.80;;;26.40;99.90;;;;;;5088401;28;20449;-72
2022/06/23 09:38:00;;;;;;;7.80;3.40;;;26.00;99.90;;;;;;5088966;28;20537;-72
2022/06/23 09:40:34;;;;;;;7.18;3.80;;;26.30;99.90;;;;;;5092130;28;20440;-72
2022/06/23 09:43:06;;;;;;;7.00;3.65;;;26.20;99.90;;;;;;5081190;28;20528;-72
2022/06/23 09:45:38;;;;;;;6.65;3.50;;;25.80;99.90;;;;;;5094450;28;20423;-72
2022/06/23 09:48:41;;;;;;;6.95;3.58;;;26.00;99.90;;;;;;5075518;28;20435;-73
2022/06/23 09:51:20;;;;;;;5.67;3.70;;;26.00;99.90;;;;;;5084617;28;20930;-72
2022/06/23 09:54:21;;;;;;;8.23;3.37;;;26.40;99.90;;;;;;5063381;28;20406;-72
2022/06/23 09:56:55;;;;;;;6.32;3.33;;;26.70;99.90;;;;;;5067085;28;20436;-73
2022/06/23 09:59:30;;;;;;;6.95;3.22;;;27.10;99.90;;;;;;5093836;28;20433;-73
2022/06/23 10:02:08;;;;;;;5.82;3.50;;;26.50;99.90;;;;;;5092790;28;21093;-71
2022/06/23 10:04:49;;;;;;;6.03;3.10;;;26.50;99.90;;;;;;5071456;28;21018;-70
2022/06/23 10:07:43;;;;;;;5.93;3.40;;;26.40;99.90;;;;;;5096947;28;20901;-73
2022/06/23 10:10:36;;;;;;;5.82;3.17;;;26.90;99.90;;;;;;5085502;28;20437;-73
2022/06/23 10:13:55;;;;;;;6.10;3.15;;;27.00;99.90;;;;;;5073667;28;20400;-71
2022/06/23 10:16:22;;;;;;;5.63;3.10;;;27.30;99.90;;;;;;5026068;28;20433;-71
2022/06/23 10:19:04;;;;;;;10.67;3.23;;;27.90;99.90;;;;;;5073914;28;20425;-72
2022/06/23 10:21:48;;;;;;;7.32;3.42;;;27.30;99.90;;;;;;5083987;28;20464;-72
2022/06/23 10:24:38;;;;;;;5.80;3.13;;;27.40;99.90;;;;;;5076821;28;20815;-72
2022/06/23 10:27:41;;;;;;;7.45;3.35;;;27.30;99.90;;;;;;5094861;28;20415;-71
2022/06/23 10:30:12;;;;;;;6.40;3.40;;;27.60;99.90;;;;;;5099819;28;20455;-71
2022/06/23 10:32:50;;;;;;;5.60;3.70;;;27.30;99.90;;;;;;5075680;28;20821;-71
2022/06/23 10:35:27;;;;;;;7.60;3.28;;;27.20;99.90;;;;;;5082254;28;20461;-72
2022/06/23 10:37:56;;;;;;;6.40;3.10;;;27.60;99.90;;;;;;5078697;28;20408;-73
2022/06/23 10:41:00;;;;;;;6.53;3.40;;;27.80;99.90;;;;;;5073346;28;20467;-79
2022/06/23 10:43:47;;;;;;;6.73;3.50;;;27.60;99.90;;;;;;5099356;28;20414;-79
2022/06/23 10:46:20;;;;;;;6.82;3.05;;;27.60;99.90;;;;;;5088400;28;20427;-79
2022/06/23 10:49:10;;;;;;;7.00;3.10;;;27.70;99.90;;;;;;5081695;28;20432;-78
2022/06/23 10:51:57;;;;;;;7.33;3.40;;;27.90;99.90;;;;;;5076655;28;20775;-80
2022/06/23 10:54:41;;;;;;;6.93;3.08;;;28.10;99.90;;;;;;5079511;28;20742;-79
2022/06/23 10:57:41;;;;;;;5.25;3.15;;;28.10;99.90;;;;;;5090585;28;20852;-80
2022/06/23 11:00:16;;;;;;;5.90;3.10;;;28.30;99.90;;;;;;5081504;28;20402;-79
2022/06/23 11:03:08;;;;;;;7.35;3.15;;;28.00;99.90;;;;;;5089077;28;20421;-79
2022/06/23 11:05:55;;;;;;;5.35;2.90;;;28.60;99.90;;;;;;5076503;28;20416;-79
2022/06/23 11:08:32;;;;;;;7.20;3.60;;;28.80;99.90;;;;;;5092600;28;20642;-79
2022/06/23 11:11:10;;;;;;;6.70;3.00;;;29.20;99.90;;;;;;5090462;28;20445;-79
2022/06/23 11:13:54;;;;;;;4.53;2.80;;;28.80;99.90;;;;;;5090664;28;20433;-78
2022/06/23 11:16:37;;;;;;;8.25;3.30;;;28.40;99.90;;;;;;5090947;28;20428;-79
2022/06/23 11:19:17;;;;;;;5.18;3.20;;;28.50;99.90;;;;;;5082818;28;20458;-80
2022/06/23 11:21:57;;;;;;;6.90;3.10;;;28.70;99.90;;;;;;5083981;28;20924;-80
2022/06/23 11:24:29;;;;;;;6.22;3.20;;;28.60;99.90;;;;;;5092196;28;20419;-79
2022/06/23 11:27:06;;;;;;;5.90;3.20;;;28.70;99.90;;;;;;5088216;28;20422;-79
2022/06/23 11:30:26;;;;;;;5.43;2.97;;;28.80;99.90;;;;;;5078328;28;20394;-80
2022/06/23 11:33:07;;;;;;;7.95;3.10;;;29.50;99.90;;;;;;4992776;28;20767;-79
2022/06/23 11:36:06;;;;;;;5.87;3.20;;;29.50;99.90;;;;;;5081850;28;20420;-79
2022/06/23 11:38:46;;;;;;;5.80;3.20;;;28.90;99.90;;;;;;5088233;28;20454;-79
2022/06/23 11:41:46;;;;;;;5.95;2.80;;;29.10;99.90;;;;;;5075631;28;20420;-79
2022/06/23 11:44:25;;;;;;;5.77;2.90;;;29.20;99.90;;;;;;5086197;28;20974;-79
2022/06/23 11:47:13;;;;;;;7.18;2.90;;;29.40;99.90;;;;;;5072722;28;20427;-79
2022/06/23 11:49:54;;;;;;;6.85;3.10;;;29.80;99.90;;;;;;5079572;28;20402;-79
2022/06/23 11:52:19;;;;;;;8.48;3.28;;;30.00;99.90;;;;;;5089045;28;20435;-79
2022/06/23 11:55:04;;;;;;;6.38;2.90;;;29.60;99.90;;;;;;5082259;28;20867;-79
2022/06/23 11:58:07;;;;;;;5.75;2.80;;;30.20;99.90;;;;;;5082748;28;20424;-79
2022/06/23 12:00:53;;;;;;;7.70;3.00;;;30.60;99.90;;;;;;5071029;28;20476;-78
2022/06/23 12:03:40;;;;;;;8.05;3.03;;;30.70;99.90;;;;;;5075154;28;20460;-78
2022/06/23 12:06:59;;;;;;;5.15;2.70;;;30.30;99.90;;;;;;5086104;28;20427;-79
2022/06/23 12:09:41;;;;;;;5.47;2.65;;;29.90;99.90;;;;;;5052481;28;20402;-79
2022/06/23 12:12:07;;;;;;;4.32;2.60;;;30.40;99.90;;;;;;5089577;28;20400;-78
2022/06/23 12:14:35;;;;;;;4.15;2.75;;;30.40;99.90;;;;;;5088116;28;20427;-80
2022/06/23 12:17:06;;;;;;;4.77;2.50;;;30.80;99.90;;;;;;5103445;28;20427;-79
2022/06/23 12:19:49;;;;;;;4.45;2.80;;;30.80;98.70;;;;;;5099727;28;20449;-80
2022/06/23 12:22:35;;;;;;;4.07;2.58;;;30.20;98.10;;;;;;5093012;28;20487;-79
2022/06/23 12:25:30;;;;;;;7.70;3.10;;;30.70;99.30;;;;;;5085985;28;20408;-79
2022/06/23 12:28:20;;;;;;;5.22;2.40;;;30.60;98.70;;;;;;5079299;28;20416;-79
2022/06/23 12:30:59;;;;;;;4.95;2.40;;;30.70;97.80;;;;;;5060884;28;20502;-79
2022/06/23 12:33:39;;;;;;;11.03;2.60;;;30.90;97.80;;;;;;5068259;28;20418;-79
2022/06/23 12:36:23;;;;;;;5.70;2.42;;;30.60;98.30;;;;;;5087779;28;20512;-80
2022/06/23 12:39:01;;;;;;;5.78;2.65;;;30.80;98.10;;;;;;5087520;28;20421;-80
2022/06/23 12:41:46;;;;;;;4.18;2.53;;;31.30;98.20;;;;;;5085054;28;20407;-80
2022/06/23 12:44:49;;;;;;;4.53;2.50;;;31.20;97.10;;;;;;5084784;28;20924;-80
2022/06/23 12:47:26;;;;;;;4.57;2.17;;;31.50;96.40;;;;;;5074231;28;20481;-79
2022/06/23 12:49:52;;;;;;;4.25;2.30;;;31.70;97.00;;;;;;5078840;28;21002;-79
2022/06/23 12:52:32;;;;;;;4.68;2.20;;;31.60;96.10;;;;;;5085404;28;20504;-79
2022/06/23 12:55:26;;;;;;;5.47;2.30;;;31.90;95.90;;;;;;5078483;28;20427;-79
2022/06/23 12:58:01;;;;;;;5.22;2.30;;;31.50;94.50;;;;;;5082089;28;20405;-79
2022/06/23 13:00:33;;;;;;;4.90;1.90;;;31.40;94.90;;;;;;5064004;28;20394;-79
2022/06/23 13:03:26;;;;;;;4.65;2.17;;;31.80;95.20;;;;;;5084433;28;20915;-79
2022/06/23 13:06:16;;;;;;;4.28;2.10;;;32.20;94.20;;;;;;5075672;28;20422;-80
2022/06/23 13:08:56;;;;;;;4.63;2.30;;;31.50;93.60;;;;;;5066936;28;20779;-79
2022/06/23 13:11:31;;;;;;;6.07;2.50;;;31.40;93.40;;;;;;5090327;28;21103;-79
2022/06/23 13:14:17;;;;;;;5.00;2.40;;;31.30;94.60;;;;;;5058921;28;20843;-79
2022/06/23 13:17:02;;;;;;;5.53;2.40;;;32.00;94.50;;;;;;5084553;28;20911;-81
2022/06/23 13:19:52;;;;;;;3.53;2.10;;;31.70;93.60;;;;;;5087737;28;20781;-79
2022/06/23 13:22:18;;;;;;;5.45;2.42;;;31.70;94.60;;;;;;5079087;28;20455;-78
2022/06/23 13:24:44;;;;;;;5.60;2.40;;;31.70;94.30;;;;;;5084224;28;20458;-79
2022/06/23 13:27:15;;;;;;;6.63;2.30;;;31.80;94.00;;;;;;5098187;28;20907;-79
2022/06/23 13:29:52;;;;;;;5.43;2.50;;;31.50;94.00;;;;;;5082590;28;20423;-79
2022/06/23 13:32:24;;;;;;;5.47;2.55;;;32.40;94.30;;;;;;5087244;28;20430;-79
2022/06/23 13:35:11;;;;;;;4.63;2.40;;;32.70;94.40;;;;;;5092914;28;20420;-79
2022/06/23 13:37:45;;;;;;;7.38;2.60;;;31.90;93.30;;;;;;5073813;28;20424;-79
2022/06/23 13:40:43;;;;;;;5.63;2.40;;;31.80;93.60;;;;;;5086763;28;20435;-79
2022/06/23 13:43:38;;;;;;;3.75;2.50;;;31.50;93.50;;;;;;5084814;28;20905;-79
2022/06/23 13:46:16;;;;;;;4.90;2.45;;;32.40;93.50;;;;;;5063150;28;20428;-79
2022/06/23 13:48:46;;;;;;;7.07;2.42;;;31.50;93.90;;;;;;5075701;28;20414;-79
2022/06/23 13:51:19;;;;;;;4.30;2.50;;;31.20;93.60;;;;;;5090118;28;20424;-79
2022/06/23 13:54:07;;;;;;;3.65;2.33;;;31.10;93.70;;;;;;5089803;28;20420;-78
2022/06/23 13:56:39;;;;;;;12.48;2.60;;;31.80;93.30;;;;;;5099382;28;20424;-79
2022/06/23 13:59:17;;;;;;;5.05;2.30;;;31.90;92.30;;;;;;5072464;28;20862;-81
2022/06/23 14:01:55;;;;;;;5.20;2.40;;;32.90;93.50;;;;;;5079437;28;20447;-77
2022/06/23 14:04:59;;;;;;;7.03;2.50;;;32.50;92.00;;;;;;5089708;28;20430;-80
2022/06/23 14:07:35;;;;;;;5.07;2.47;;;32.60;92.20;;;;;;5070793;28;20402;-79